• Join FlightAware (Why Join?)
  • Login
  • US Flag 
07:20PM EDT


 

Airport Tracker/Info


-or-


 

Live Flight TrackerFlight Track Log ✈ SWA2264 ✈ 28-Apr-2012 ✈ KMAF - KDAL

Flight Track Log - Related Links

Times and Time Zones

All times are in EDT time to prevent confusion due to time zone crossing. See the SWA2264 flight status page for this flight to view local times or setup timezone preferences in your user account.

Time Position Orientation Groundspeed Altitude Reporting Facility
EDT Latitude Longitude Course Direction KTS MPH feet Rate Location/Type
08:03PM 31.9450 -102.1713 105° East  Level FlightAware Approximate
08:04PM 32.0131 -102.0975 148° Southeast  Level FlightAware Approximate
08:05PM 31.9117 -102.0239 81° East 298 343 11,800  Level Fort Worth Center
08:06PM 31.9258 -101.9194 80° East 308 354 14,800 3,420 Climbing Fort Worth Center
08:07PM 31.9422 -101.8075 78° East 325 374 18,700 3,600 Climbing Fort Worth Center
08:08PM 31.9628 -101.6936 79° East 340 391 22,100 3,000 Climbing Fort Worth Center
08:09PM 31.9839 -101.5697 81° East 367 422 24,700 2,460 Climbing Fort Worth Center
08:10PM 32.0028 -101.4333 81° East 396 456 27,000 2,400 Climbing Fort Worth Center
08:11PM 32.0219 -101.2872 84° East 422 486 29,600 2,580 Climbing Fort Worth Center
08:12PM 32.0347 -101.1431 87° East 441 507 32,300 1,680 Climbing Fort Worth Center
08:13PM 32.0411 -100.9964 87° East 441 507 33,000 300 Climbing Fort Worth Center
08:14PM 32.0469 -100.8594 80° East 446 513 33,000  Level Fort Worth Center
08:15PM 32.0697 -100.7108 78° East 459 528 33,000  Level Fort Worth Center
08:16PM 32.0967 -100.5597 76° East 464 534 33,000  Level Fort Worth Center
08:17PM 32.1275 -100.4111 77° East 464 534 33,000  Level Fort Worth Center
08:18PM 32.1558 -100.2597 85° East 469 540 33,000  Level Fort Worth Center
08:19PM 32.1675 -100.1106 89° East 469 540 33,000  Level Fort Worth Center
08:20PM 32.1686 -99.9558 89° East 469 540 33,000  Level Fort Worth Center
08:21PM 32.1697 -99.8039 90° East 464 534 33,000  Level Fort Worth Center
08:22PM 32.1703 -99.6542 81° East 458 527 33,000  Level Fort Worth Center
08:23PM 32.1897 -99.5025 79° East 458 527 33,000  Level Fort Worth Center
08:24PM 32.2128 -99.3556 80° East 458 527 33,000  Level Fort Worth Center
08:25PM 32.2339 -99.2086 81° East 458 527 33,000  Level Fort Worth Center
08:26PM 32.2547 -99.0569 80° East 463 533 33,000 -540 Level Fort Worth Center
08:27PM 32.2775 -98.9075 80° East 463 533 32,000 -1,020 Descending Fort Worth Center
08:28PM 32.3000 -98.7553 83° East 463 533 31,000 -960 Descending Fort Worth Center
08:29PM 32.3161 -98.6056 79° East 463 533 30,100 -960 Descending Fort Worth Center
08:30PM 32.3406 -98.4583 81° East 463 533 29,100 -1,080 Descending Fort Worth Center
08:31PM 32.3606 -98.3036 80° East 468 539 28,000 -1,800 Descending Fort Worth Center
08:32PM 32.3822 -98.1611 81° East 456 525 25,600 -2,580 Descending Fort Worth Center
08:33PM 32.4022 -98.0056 84° East 444 511 22,800 -2,700 Descending FAA TRACON SMA TRACON (SMA)
08:34PM 32.4108 -97.9092 92° East 429 494 21,100 -2,340 Descending FAA TRACON SMA TRACON (SMA)
08:34PM 32.4086 -97.8253 87° East 418 481 19,700 -2,280 Descending FAA TRACON SMA TRACON (SMA)
08:36PM 32.4189 -97.6125 61° Northeast 389 448 15,900 -2,580 Descending FAA TRACON SMA TRACON (SMA)
08:37PM 32.4550 -97.5358 54° Northeast 385 443 13,900 -2,940 Descending FAA TRACON SMA TRACON (SMA)
08:37PM 32.4989 -97.4636 42° Northeast 393 452 12,000 -2,280 Descending FAA TRACON SMA TRACON (SMA)
08:38PM 32.5544 -97.4036 45° Northeast 387 445 10,900 -840 Descending FAA TRACON SMA TRACON (SMA)
08:39PM 32.5992 -97.3500 46° Northeast 369 425 10,900  Level FAA TRACON SMA TRACON (SMA)
08:39PM 32.6425 -97.2958 45° Northeast 323 372 10,900  Level FAA TRACON SMA TRACON (SMA)
08:40PM 32.6853 -97.2447 45° Northeast 314 361 10,900  Level FAA TRACON SMA TRACON (SMA)
08:41PM 32.7200 -97.2036 31° Northeast 284 327 10,900 -480 Level FAA TRACON SMA TRACON (SMA)
08:41PM 32.7642 -97.1725 357° North 294 338 10,300 -1,260 Descending FAA TRACON SMA TRACON (SMA)
08:42PM 32.8164 -97.1761 356° North 270 311 9,200 -1,500 Descending FAA TRACON SMA TRACON (SMA)
08:43PM 32.8636 -97.1800 37° Northeast 273 314 8,300 -1,500 Descending FAA TRACON SMA TRACON (SMA)
08:43PM 32.9011 -97.1467 70° East 269 310 7,300 -1,500 Descending FAA TRACON SMA TRACON (SMA)
08:44PM 32.9156 -97.0989 69° East 247 284 6,300 -1,980 Descending FAA TRACON SMA TRACON (SMA)
08:45PM 32.9322 -97.0467 74° East 244 281 4,700 -2,100 Descending FAA TRACON SMA TRACON (SMA)
08:45PM 32.9436 -96.9981 109° East 243 280 3,500 -1,740 Descending FAA TRACON SMA TRACON (SMA)
08:46PM 32.9314 -96.9556 135° Southeast 210 242 2,400 -1,320 Descending FAA TRACON SMA TRACON (SMA)
08:47PM 32.9072 -96.9267 136° Southeast 169 194 1,800 -780 Descending FAA TRACON SMA TRACON (SMA)
08:47PM 32.8903 -96.9075 135° Southeast 133 153 1,400 -600 Descending FAA TRACON SMA TRACON (SMA)
08:48PM 32.8736 -96.8875 135° Southeast 124 143 1,000 -660 Descending FAA TRACON SMA TRACON (SMA)
08:49PM 32.8561 -96.8669 135° Southeast 138 159 600 -600 Descending FAA TRACON SMA TRACON (SMA)